Time;durP1;ratioP1;P1;durP2;ratioP2;P2;SDS_P1;SDS_P2;PMS_P1;PMS_P2;Temp;Humidity;BMP_temperature;BMP_pressure;BME280_temperature;BME280_humidity;BME280_pressure;Samples;Min_cycle;Max_cycle;Signal;HPM_P1;HPM_P2
2022/02/09 00:04:20;;;;;;;2.30;1.33;;;21.40;56.50;;;;;;4958948;28;87988;-86
2022/02/09 00:07:03;;;;;;;2.08;1.50;;;21.40;56.40;;;;;;4954479;28;88099;-85
2022/02/09 00:09:29;;;;;;;1.50;1.30;;;21.30;56.30;;;;;;4956814;28;87855;-85
2022/02/09 00:14:34;;;;;;;3.00;1.50;;;21.30;56.30;;;;;;4959104;28;86910;-85
2022/02/09 00:17:16;;;;;;;2.05;1.45;;;21.30;56.30;;;;;;4949436;28;88512;-84
2022/02/09 00:39:16;;;;;;;2.03;1.30;;;21.30;56.10;;;;;;4957912;28;88240;-85
2022/02/09 00:41:44;;;;;;;2.10;1.35;;;21.20;56.10;;;;;;4956945;28;87645;-85
2022/02/09 01:11:14;;;;;;;2.05;1.63;;;21.20;55.80;;;;;;4954841;28;87730;-85
2022/02/09 01:39:42;;;;;;;1.70;1.25;;;21.10;55.10;;;;;;4952666;28;88294;-84
2022/02/09 01:55:30;;;;;;;1.63;1.23;;;21.10;55.00;;;;;;4958653;28;87623;-83
2022/02/09 01:57:56;;;;;;;1.70;1.52;;;21.10;54.90;;;;;;4957522;28;87018;-85
2022/02/09 02:00:22;;;;;;;2.05;1.35;;;21.10;54.80;;;;;;4959366;28;87413;-84
2022/02/09 02:02:48;;;;;;;1.65;1.40;;;21.10;54.90;;;;;;4958490;28;87650;-84
2022/02/09 02:05:15;;;;;;;2.63;1.30;;;21.00;54.80;;;;;;4956161;28;88936;-85
2022/02/09 02:07:51;;;;;;;2.45;1.50;;;21.00;54.90;;;;;;4955611;28;88422;-84
2022/02/09 02:10:24;;;;;;;1.92;1.52;;;21.00;55.00;;;;;;4956161;28;87985;-85
2022/02/09 02:13:10;;;;;;;1.20;1.10;;;21.00;55.00;;;;;;4962104;28;87465;-85
2022/02/09 02:18:10;;;;;;;2.08;1.40;;;21.00;55.10;;;;;;4953207;28;87455;-85
2022/02/09 02:20:54;;;;;;;1.52;1.40;;;21.00;54.80;;;;;;4958330;28;87907;-85
2022/02/09 02:28:42;;;;;;;2.50;1.50;;;21.00;54.60;;;;;;4956650;28;87217;-84
2022/02/09 02:34:29;;;;;;;1.75;1.30;;;21.00;54.80;;;;;;4957963;28;87769;-85
2022/02/09 02:37:14;;;;;;;1.50;1.40;;;21.00;55.00;;;;;;4951787;28;88864;-84
2022/02/09 03:09:06;;;;;;;1.50;1.30;;;20.90;54.50;;;;;;4951863;28;87255;-83
2022/02/09 03:14:14;;;;;;;1.30;1.20;;;20.90;54.50;;;;;;4957404;28;87465;-85
2022/02/09 03:16:46;;;;;;;1.75;1.38;;;20.90;54.50;;;;;;4959196;28;86661;-83
2022/02/09 03:54:24;;;;;;;2.65;1.65;;;20.80;54.30;;;;;;4951705;28;89017;-85
2022/02/09 03:57:21;;;;;;;1.88;1.30;;;20.80;54.10;;;;;;4951221;28;87878;-83
2022/02/09 03:59:49;;;;;;;2.90;1.30;;;20.80;54.30;;;;;;4955996;28;87683;-84
2022/02/09 04:04:56;;;;;;;1.63;1.20;;;20.80;54.30;;;;;;4987185;28;87876;-85
2022/02/09 04:07:22;;;;;;;1.70;1.42;;;20.80;54.30;;;;;;4970169;28;87633;-84
2022/02/09 04:09:51;;;;;;;1.92;1.25;;;20.80;54.30;;;;;;4988171;28;87216;-84
2022/02/09 04:12:37;;;;;;;1.65;1.55;;;20.80;54.40;;;;;;4975968;28;87560;-84
2022/02/09 04:18:07;;;;;;;1.77;1.67;;;20.80;54.20;;;;;;4967576;28;89018;-84
2022/02/09 04:22:36;;;;;;;2.25;1.50;;;20.80;54.30;;;;;;4953160;28;89219;-84
2022/02/09 04:37:42;;;;;;;1.83;1.40;;;20.80;54.10;;;;;;4969852;28;88358;-84
2022/02/09 04:39:59;;;;;;;1.42;1.30;;;20.80;54.30;;;;;;4968703;28;86965;-84
2022/02/09 04:43:22;;;;;;;2.03;1.75;;;20.80;54.10;;;;;;4954830;28;87991;-85
2022/02/09 04:50:50;;;;;;;2.47;1.67;;;20.80;54.10;;;;;;4957906;28;88212;-84
2022/02/09 04:53:24;;;;;;;1.48;1.38;;;20.80;54.00;;;;;;4975921;28;87293;-84
2022/02/09 05:01:07;;;;;;;1.97;1.50;;;20.70;53.90;;;;;;4970021;28;87346;-85
2022/02/09 05:27:33;;;;;;;1.50;1.40;;;20.70;53.60;;;;;;4973031;28;88344;-84
2022/02/09 05:30:03;;;;;;;1.73;1.48;;;20.70;53.80;;;;;;4979645;28;87080;-84
2022/02/09 05:32:28;;;;;;;;;;;20.70;53.70;;;;;;4963148;28;87241;-84
2022/02/09 05:34:58;;;;;;;2.08;1.58;;;20.70;53.70;;;;;;4973360;28;87494;-84
2022/02/09 05:37:24;;;;;;;1.35;1.25;;;20.70;53.80;;;;;;4958502;28;91863;-84
2022/02/09 05:39:50;;;;;;;1.55;1.45;;;20.60;53.60;;;;;;4976286;28;88619;-84
2022/02/09 05:42:15;;;;;;;1.58;1.48;;;20.70;53.70;;;;;;4983714;28;86954;-84
2022/02/09 05:44:41;;;;;;;2.55;1.60;;;20.60;53.70;;;;;;4973381;28;87449;-84
2022/02/09 05:49:59;;;;;;;1.52;1.30;;;20.60;53.70;;;;;;4973662;28;87479;-83
2022/02/09 05:52:58;;;;;;;1.90;1.63;;;20.60;53.80;;;;;;4964238;28;87023;-84
2022/02/09 05:58:11;;;;;;;1.90;1.55;;;20.60;53.60;;;;;;4972305;28;87269;-85
2022/02/09 06:00:41;;;;;;;1.83;1.50;;;20.60;53.60;;;;;;4975053;28;87997;-84
2022/02/09 06:03:08;;;;;;;4.18;1.50;;;20.60;53.70;;;;;;4956341;28;88235;-85
2022/02/09 06:05:33;;;;;;;2.75;1.40;;;20.60;53.80;;;;;;4957353;28;88132;-84
2022/02/09 06:07:59;;;;;;;1.63;1.50;;;20.60;53.70;;;;;;4974137;28;88645;-84
2022/02/09 06:10:30;;;;;;;2.03;1.55;;;20.60;53.70;;;;;;4955429;28;89129;-85
2022/02/09 06:15:59;;;;;;;3.40;1.75;;;20.70;54.10;;;;;;4981824;28;87532;-84
2022/02/09 06:21:02;;;;;;;2.20;2.00;;;20.70;54.10;;;;;;4970931;28;87330;-84
2022/02/09 06:23:29;;;;;;;1.80;1.60;;;20.80;54.30;;;;;;4958683;28;87324;-84
2022/02/09 06:25:55;;;;;;;3.70;1.85;;;20.80;54.30;;;;;;4974590;28;87774;-84
2022/02/09 06:28:30;;;;;;;1.75;1.65;;;20.90;54.30;;;;;;4979803;28;90001;-85
2022/02/09 06:30:57;;;;;;;2.40;1.90;;;20.90;54.50;;;;;;4970034;28;88542;-84
2022/02/09 06:33:22;;;;;;;2.42;2.10;;;20.90;54.40;;;;;;4981189;28;86942;-85
2022/02/09 06:35:49;;;;;;;2.28;2.00;;;20.90;54.20;;;;;;4954678;28;89792;-84
2022/02/09 06:38:16;;;;;;;1.83;1.73;;;21.00;54.30;;;;;;4957518;28;90738;-84
2022/02/09 06:40:44;;;;;;;1.90;1.67;;;21.00;54.10;;;;;;4976907;28;88549;-84
2022/02/09 06:43:12;;;;;;;2.38;2.00;;;21.00;54.00;;;;;;4975808;28;87498;-84
2022/02/09 06:45:40;;;;;;;1.95;1.75;;;21.00;53.90;;;;;;4976103;28;87485;-85
2022/02/09 06:48:17;;;;;;;2.22;1.80;;;21.00;53.90;;;;;;4974581;28;87714;-85
2022/02/09 06:50:51;;;;;;;1.75;1.65;;;21.00;54.10;;;;;;4974359;28;87448;-84
2022/02/09 06:53:31;;;;;;;2.40;1.98;;;21.00;54.00;;;;;;4952570;28;88100;-85
2022/02/09 06:55:59;;;;;;;2.15;1.67;;;21.10;53.90;;;;;;4970768;28;87405;-84
2022/02/09 07:00:59;;;;;;;1.88;1.60;;;21.00;53.50;;;;;;4975069;28;88184;-84
2022/02/09 07:03:25;;;;;;;2.42;2.00;;;21.10;53.80;;;;;;4953741;28;87163;-85
2022/02/09 07:05:50;;;;;;;1.60;1.50;;;21.00;53.60;;;;;;4972971;28;87701;-84
2022/02/09 07:08:16;;;;;;;2.30;1.88;;;21.00;54.00;;;;;;4976525;28;87846;-84
2022/02/09 07:10:42;;;;;;;2.00;1.60;;;21.00;53.90;;;;;;4976824;28;87815;-84
2022/02/09 07:13:08;;;;;;;1.67;1.33;;;21.00;53.80;;;;;;4984884;28;87814;-84
2022/02/09 07:15:40;;;;;;;1.85;1.35;;;21.00;54.10;;;;;;4958312;28;89983;-83
2022/02/09 07:18:10;;;;;;;1.67;1.58;;;21.00;54.20;;;;;;4951284;28;92015;-85
2022/02/09 07:21:15;;;;;;;2.33;1.45;;;21.00;54.00;;;;;;4979737;28;88657;-85
2022/02/09 07:23:36;;;;;;;2.55;1.50;;;21.00;54.20;;;;;;4972021;28;87501;-85
2022/02/09 07:28:28;;;;;;;8.60;2.35;;;21.00;53.40;;;;;;4970385;28;87836;-84
2022/02/09 07:30:54;;;;;;;4.90;2.17;;;21.00;52.20;;;;;;4980548;28;87552;-84
2022/02/09 07:33:19;;;;;;;2.83;2.20;;;21.00;52.10;;;;;;4974363;28;87609;-84
2022/02/09 07:35:45;;;;;;;5.57;3.30;;;21.00;52.40;;;;;;4969377;28;87264;-84
2022/02/09 07:38:10;;;;;;;8.45;4.13;;;21.00;53.50;;;;;;4976482;28;88039;-84
2022/02/09 07:40:41;;;;;;;8.30;3.95;;;21.00;54.40;;;;;;4971994;28;86877;-83
2022/02/09 07:43:13;;;;;;;6.80;4.85;;;21.00;54.60;;;;;;4954214;28;88103;-84
2022/02/09 07:51:00;;;;;;;11.38;5.18;;;21.10;55.90;;;;;;4977197;28;87376;-84
2022/02/09 07:53:36;;;;;;;15.68;6.75;;;21.10;56.40;;;;;;4978010;28;86956;-84
2022/02/09 07:56:02;;;;;;;15.32;8.88;;;21.10;57.20;;;;;;4975110;28;87090;-83
2022/02/09 07:58:28;;;;;;;10.70;5.50;;;21.10;58.00;;;;;;4979930;28;89117;-84
2022/02/09 08:00:53;;;;;;;10.25;5.18;;;21.10;56.80;;;;;;4953183;28;90917;-84
2022/02/09 08:03:30;;;;;;;14.48;6.13;;;21.10;56.70;;;;;;4975565;28;87397;-83
2022/02/09 08:05:56;;;;;;;16.80;7.15;;;21.10;57.00;;;;;;4961166;28;88556;-84
2022/02/09 08:08:22;;;;;;;54.58;15.07;;;21.10;56.70;;;;;;4967942;28;89096;-83
2022/02/09 08:10:56;;;;;;;54.05;16.25;;;21.10;56.90;;;;;;4973315;28;88311;-84
2022/02/09 08:27:36;;;;;;;23.38;9.50;;;21.00;57.10;;;;;;4971575;28;86796;-86
2022/02/09 08:30:46;;;;;;;23.10;8.55;;;21.10;56.40;;;;;;4951290;28;90899;-84
2022/02/09 08:33:03;;;;;;;35.97;11.43;;;21.10;55.50;;;;;;4977460;28;88011;-83
2022/02/09 08:35:29;;;;;;;27.90;10.00;;;21.10;55.40;;;;;;4971230;28;88243;-84
2022/02/09 08:37:57;;;;;;;27.80;9.95;;;21.10;55.80;;;;;;4975484;28;87377;-83
2022/02/09 08:40:24;;;;;;;23.33;10.57;;;21.10;56.90;;;;;;4963183;28;88632;-83
2022/02/09 08:42:50;;;;;;;27.40;9.45;;;21.10;56.40;;;;;;4949884;28;90575;-83
2022/02/09 08:45:16;;;;;;;23.05;8.68;;;21.10;56.00;;;;;;4972112;28;87757;-84
2022/02/09 08:47:42;;;;;;;26.67;8.82;;;21.10;55.30;;;;;;4966439;28;88320;-84
2022/02/09 08:50:09;;;;;;;25.15;9.10;;;21.10;55.70;;;;;;4979613;28;90470;-83
2022/02/09 08:52:35;;;;;;;30.95;9.63;;;21.10;55.70;;;;;;4978257;28;87856;-84
2022/02/09 08:55:01;;;;;;;23.70;8.95;;;21.10;56.00;;;;;;4977124;28;87854;-84
2022/02/09 08:57:28;;;;;;;20.63;9.13;;;21.10;55.80;;;;;;4980756;28;88082;-84
2022/02/09 08:59:54;;;;;;;24.67;8.95;;;21.10;55.60;;;;;;4977820;28;88998;-84
2022/02/09 09:02:23;;;;;;;22.67;8.13;;;21.10;55.00;;;;;;4972945;28;87721;-85
2022/02/09 09:04:55;;;;;;;20.42;8.77;;;21.10;53.80;;;;;;4974954;28;87691;-84
2022/02/09 09:07:30;;;;;;;19.55;9.20;;;21.10;54.00;;;;;;4970820;28;88191;-84
2022/02/09 09:10:17;;;;;;;24.42;9.18;;;21.10;54.10;;;;;;4961907;28;91205;-84
2022/02/09 10:02:33;;;;;;;17.35;7.47;;;21.10;56.70;;;;;;4978790;28;87136;-86
2022/02/09 10:05:18;;;;;;;;;;;21.10;57.10;;;;;;4978038;28;90774;-86
2022/02/09 10:14:14;;;;;;;13.02;7.07;;;21.20;56.80;;;;;;4978158;28;87807;-85
2022/02/09 10:31:37;;;;;;;13.57;5.82;;;21.40;57.40;;;;;;4979930;28;87455;-86
2022/02/09 10:34:05;;;;;;;12.55;6.28;;;21.40;58.10;;;;;;4969036;28;87709;-85
2022/02/09 10:36:47;;;;;;;10.52;6.20;;;21.30;57.40;;;;;;4976025;28;87608;-85
2022/02/09 10:39:16;;;;;;;16.58;6.85;;;21.30;57.70;;;;;;4953564;28;90549;-85
2022/02/09 10:44:48;;;;;;;15.80;7.57;;;21.30;57.70;;;;;;4978816;28;87688;-86
2022/02/09 10:47:27;;;;;;;14.43;7.22;;;21.30;57.20;;;;;;4973507;28;87926;-85
2022/02/09 10:50:17;;;;;;;11.77;6.53;;;21.30;56.90;;;;;;4976711;28;88795;-84
2022/02/09 10:52:51;;;;;;;10.38;6.70;;;21.30;57.60;;;;;;4974081;28;89659;-85
2022/02/09 10:55:39;;;;;;;11.38;6.38;;;21.30;57.80;;;;;;4973469;28;87813;-85
2022/02/09 10:58:11;;;;;;;12.18;5.85;;;21.30;57.90;;;;;;4967358;28;89984;-85
2022/02/09 11:00:43;;;;;;;13.80;6.50;;;21.30;58.10;;;;;;4956382;28;91002;-84
2022/02/09 11:03:22;;;;;;;12.30;6.60;;;21.30;58.00;;;;;;4972899;28;88008;-84
2022/02/09 11:05:50;;;;;;;17.73;7.03;;;21.30;58.00;;;;;;4971858;28;87836;-85
2022/02/09 11:08:17;;;;;;;11.27;5.80;;;21.30;58.00;;;;;;4976864;28;86701;-85
2022/02/09 11:10:44;;;;;;;12.60;5.88;;;21.20;58.10;;;;;;4975775;28;88024;-85
2022/02/09 11:13:11;;;;;;;10.80;6.20;;;21.30;58.20;;;;;;4959551;28;88885;-85
2022/02/09 11:15:48;;;;;;;11.85;5.50;;;21.30;58.00;;;;;;5008755;22;88788;-85
2022/02/09 11:18:16;;;;;;;10.40;6.03;;;21.30;58.00;;;;;;4966878;28;87616;-84
2022/02/09 11:21:03;;;;;;;13.63;6.55;;;21.30;57.90;;;;;;4967460;28;90148;-84
2022/02/09 11:23:52;;;;;;;12.18;5.78;;;21.30;57.70;;;;;;4969062;28;87816;-85
2022/02/09 11:26:33;;;;;;;10.05;6.22;;;21.30;57.40;;;;;;4970282;28;88624;-84
2022/02/09 11:29:37;;;;;;;18.45;6.05;;;21.30;57.40;;;;;;4971326;28;88201;-83
2022/02/09 11:32:32;;;;;;;11.38;5.75;;;21.30;57.30;;;;;;4969682;28;88488;-84
2022/02/09 11:35:08;;;;;;;10.15;5.55;;;21.40;57.60;;;;;;4968509;28;90646;-85
2022/02/09 11:38:12;;;;;;;11.50;5.20;;;21.40;58.00;;;;;;4971251;28;88022;-85
2022/02/09 11:40:53;;;;;;;14.70;5.30;;;21.40;58.10;;;;;;4969158;28;87786;-83
2022/02/09 12:10:52;;;;;;;13.02;5.00;;;21.50;59.50;;;;;;4968934;28;88862;-84
2022/02/09 12:14:00;;;;;;;14.00;5.55;;;21.50;58.90;;;;;;4969548;28;87832;-85
2022/02/09 12:16:34;;;;;;;10.57;4.65;;;21.60;59.00;;;;;;4959979;28;90504;-84
2022/02/09 12:19:06;;;;;;;11.70;5.38;;;21.60;59.20;;;;;;4969292;28;87573;-83
2022/02/09 12:21:40;;;;;;;14.23;4.90;;;21.60;59.30;;;;;;4968453;28;87625;-84
2022/02/09 12:24:26;;;;;;;13.15;4.95;;;21.60;59.40;;;;;;4968582;28;88062;-85
2022/02/09 12:27:12;;;;;;;13.85;5.30;;;21.60;59.40;;;;;;4968027;28;90989;-83
2022/02/09 12:29:40;;;;;;;14.25;4.97;;;21.60;59.30;;;;;;4968297;28;90167;-84
2022/02/09 12:32:29;;;;;;;11.93;4.65;;;21.60;59.00;;;;;;4969584;28;88076;-83
2022/02/09 12:35:12;;;;;;;16.03;4.90;;;21.60;58.80;;;;;;4969100;28;87408;-85
2022/02/09 12:37:42;;;;;;;15.30;5.63;;;21.60;58.80;;;;;;4965876;28;89007;-84
2022/02/09 12:40:17;;;;;;;20.17;5.40;;;21.60;58.90;;;;;;4967432;28;87729;-85
2022/02/09 12:42:48;;;;;;;14.15;5.22;;;21.60;58.30;;;;;;4965053;28;87463;-86
2022/02/09 12:45:17;;;;;;;15.10;5.22;;;21.60;58.30;;;;;;4964651;28;87389;-83
2022/02/09 12:47:45;;;;;;;14.30;4.50;;;21.60;58.70;;;;;;4965236;28;88061;-84
2022/02/09 12:50:12;;;;;;;14.10;4.85;;;21.60;58.50;;;;;;4966491;28;88157;-84
2022/02/09 12:52:41;;;;;;;17.30;5.13;;;21.60;58.90;;;;;;4964571;28;88353;-83
2022/02/09 12:55:13;;;;;;;14.00;4.82;;;21.60;59.00;;;;;;4966674;28;88494;-83
2022/02/09 12:57:41;;;;;;;13.15;4.60;;;21.60;58.80;;;;;;4968185;28;88134;-84
2022/02/09 13:00:20;;;;;;;10.40;4.35;;;21.60;59.00;;;;;;4969229;28;87672;-85
2022/02/09 13:02:46;;;;;;;12.70;4.70;;;21.50;58.90;;;;;;4965554;28;89039;-84
2022/02/09 13:05:13;;;;;;;12.50;4.47;;;21.60;58.90;;;;;;4968156;28;87046;-83
2022/02/09 13:07:38;;;;;;;13.68;4.03;;;21.60;58.80;;;;;;4969165;28;88181;-85
2022/02/09 13:10:05;;;;;;;12.65;4.07;;;21.60;58.80;;;;;;4968182;28;88197;-84
2022/02/09 13:12:32;;;;;;;12.40;4.80;;;21.60;58.90;;;;;;4969512;28;88105;-83
2022/02/09 13:15:28;;;;;;;11.15;4.15;;;21.60;59.00;;;;;;4983114;28;89127;-83
2022/02/09 14:16:26;;;;;;;9.25;3.50;;;21.80;56.20;;;;;;4971965;28;87001;-84
2022/02/09 14:58:30;;;;;;;20.23;6.47;;;21.80;58.60;;;;;;4970477;28;87282;-82
2022/02/09 15:01:07;;;;;;;62.50;16.65;;;21.80;57.20;;;;;;4968717;28;87390;-82
2022/02/09 15:06:29;;;;;;;56.20;15.82;;;21.70;56.50;;;;;;4969691;28;87929;-82
2022/02/09 15:12:01;;;;;;;52.97;15.02;;;21.80;57.30;;;;;;4967975;28;88028;-82
2022/02/09 15:17:33;;;;;;;51.42;15.35;;;21.80;58.30;;;;;;4954801;28;88536;-82
2022/02/09 15:22:36;;;;;;;54.92;17.42;;;21.80;58.80;;;;;;4967622;28;87487;-83
2022/02/09 15:25:10;;;;;;;52.75;13.98;;;21.80;58.90;;;;;;4982588;28;89931;-83
2022/02/09 15:27:36;;;;;;;48.03;13.15;;;21.80;59.20;;;;;;4966238;28;88250;-82
2022/02/09 15:30:02;;;;;;;57.72;14.23;;;21.80;59.40;;;;;;4966441;28;88149;-83
2022/02/09 15:32:36;;;;;;;46.75;14.38;;;21.80;59.90;;;;;;4966919;28;87261;-83
2022/02/09 15:38:22;;;;;;;46.00;13.52;;;21.90;60.00;;;;;;4966145;28;88028;-82
2022/02/09 15:40:58;;;;;;;44.17;13.68;;;21.90;60.20;;;;;;4982260;28;90297;-82
2022/02/09 16:21:53;;;;;;;42.72;12.82;;;21.90;60.50;;;;;;4966592;28;87771;-83
2022/02/09 16:23:51;;;;;;;34.63;12.47;;;22.00;61.30;;;;;;4960264;28;87595;-83
2022/02/09 16:45:09;;;;;;;29.08;11.38;;;21.90;60.90;;;;;;4966607;28;87833;-82
2022/02/09 16:50:13;;;;;;;39.83;12.17;;;21.90;60.90;;;;;;4965844;28;87552;-82
2022/02/09 16:52:51;;;;;;;34.22;11.07;;;21.90;61.50;;;;;;4966337;28;88384;-83
2022/02/09 17:19:39;;;;;;;24.23;10.15;;;22.00;59.80;;;;;;4969127;28;87711;-82
2022/02/09 17:22:06;;;;;;;32.00;11.00;;;21.90;59.90;;;;;;4967669;28;87526;-81
2022/02/09 17:24:31;;;;;;;28.88;10.45;;;22.00;59.90;;;;;;4969086;28;87592;-82
2022/02/09 17:26:57;;;;;;;33.40;10.88;;;22.00;60.00;;;;;;4968257;28;87997;-82
2022/02/09 17:29:42;;;;;;;28.52;10.95;;;22.00;60.30;;;;;;4969143;28;88736;-82
2022/02/09 17:32:20;;;;;;;28.75;10.95;;;22.00;60.30;;;;;;4967079;28;89360;-82
2022/02/09 17:53:35;;;;;;;23.98;9.95;;;21.90;60.00;;;;;;4970113;28;88036;-82
2022/02/09 17:56:13;;;;;;;29.15;9.90;;;21.90;60.10;;;;;;4969169;28;88980;-82
2022/02/09 17:58:45;;;;;;;26.42;9.57;;;21.90;59.90;;;;;;4968706;28;91505;-82
2022/02/09 18:01:11;;;;;;;22.92;9.10;;;21.90;60.20;;;;;;4968556;28;87104;-82
2022/02/09 18:03:37;;;;;;;20.27;9.38;;;22.00;60.30;;;;;;4970282;28;87517;-82
2022/02/09 18:06:23;;;;;;;20.55;9.30;;;21.90;60.00;;;;;;4970592;28;88030;-82
2022/02/09 18:09:03;;;;;;;23.65;9.23;;;21.90;59.90;;;;;;4969099;28;87864;-82
2022/02/09 18:15:06;;;;;;;19.48;8.35;;;21.90;60.60;;;;;;4927601;28;86786;-82
2022/02/09 18:31:17;;;;;;;23.25;9.32;;;22.00;60.90;;;;;;4945639;28;87746;-82
2022/02/09 18:40:13;;;;;;;24.00;9.70;;;22.00;60.70;;;;;;4969288;28;87308;-81
2022/02/09 18:47:47;;;;;;;20.17;8.45;;;22.00;60.50;;;;;;4969271;28;87431;-82
2022/02/09 19:03:58;;;;;;;17.42;7.80;;;22.00;59.70;;;;;;4968339;28;87656;-82
2022/02/09 19:06:44;;;;;;;18.55;8.07;;;22.00;60.40;;;;;;4969527;28;87195;-82
2022/02/09 19:17:10;;;;;;;22.85;8.48;;;22.00;60.10;;;;;;4966572;28;89131;-82
2022/02/09 19:19:54;;;;;;;19.67;8.00;;;22.00;60.20;;;;;;4966774;28;87611;-82
2022/02/09 19:30:50;;;;;;;21.38;7.25;;;22.00;59.80;;;;;;4968379;28;87853;-82
2022/02/09 19:40:32;;;;;;;18.77;8.48;;;22.00;59.80;;;;;;4967469;28;89127;-82
2022/02/09 19:42:35;;;;;;;17.27;8.02;;;22.00;60.00;;;;;;4979840;28;87283;-81
2022/02/09 19:45:09;;;;;;;13.38;6.88;;;22.00;59.80;;;;;;4974532;28;88793;-78
2022/02/09 19:47:29;;;;;;;19.05;7.53;;;22.00;59.90;;;;;;4978580;28;88341;-82
2022/02/09 19:50:12;;;;;;;20.55;8.00;;;22.00;59.80;;;;;;4978673;28;87641;-82
2022/02/09 19:52:52;;;;;;;15.52;7.80;;;22.00;60.00;;;;;;4977423;28;87580;-82
2022/02/09 19:55:33;;;;;;;18.73;7.80;;;22.00;59.80;;;;;;4980442;28;88502;-83
2022/02/09 19:58:00;;;;;;;13.70;6.65;;;22.00;59.70;;;;;;4981982;28;87016;-82
2022/02/09 20:00:29;;;;;;;14.52;6.82;;;22.00;59.60;;;;;;4978193;28;87018;-83
2022/02/09 20:02:55;;;;;;;18.98;7.80;;;22.00;59.80;;;;;;4976199;28;88765;-82
2022/02/09 20:05:32;;;;;;;14.48;7.82;;;22.00;59.90;;;;;;4977929;28;87836;-81
2022/02/09 20:08:03;;;;;;;13.45;6.72;;;22.00;59.90;;;;;;4973920;28;90020;-82
2022/02/09 20:10:28;;;;;;;13.52;7.38;;;22.00;59.60;;;;;;4976060;28;87941;-82
2022/02/09 20:12:54;;;;;;;13.13;7.07;;;22.00;59.60;;;;;;4976299;28;87870;-82
2022/02/09 20:15:20;;;;;;;14.88;7.05;;;22.00;60.10;;;;;;4972426;28;91555;-83
2022/02/09 20:17:47;;;;;;;15.13;7.78;;;22.00;59.50;;;;;;4974507;28;87873;-83
2022/02/09 20:20:21;;;;;;;17.50;8.05;;;22.00;59.50;;;;;;4975394;28;87470;-83
2022/02/09 20:22:48;;;;;;;13.68;6.88;;;22.00;59.40;;;;;;4973247;28;87542;-83
2022/02/09 20:25:14;;;;;;;16.85;7.30;;;22.00;59.80;;;;;;4974565;28;88046;-82
2022/02/09 20:27:40;;;;;;;15.68;7.45;;;22.00;59.80;;;;;;4974359;28;88924;-82
2022/02/09 20:30:09;;;;;;;15.50;7.40;;;22.00;59.70;;;;;;4977126;28;87091;-82
2022/02/09 20:32:37;;;;;;;15.07;7.18;;;22.00;59.70;;;;;;4976842;28;87641;-82
2022/02/09 20:35:14;;;;;;;15.77;8.02;;;22.00;59.20;;;;;;4979148;28;88828;-82
2022/02/09 20:37:45;;;;;;;14.77;7.30;;;22.00;59.40;;;;;;4973500;28;88533;-83
2022/02/09 20:40:26;;;;;;;14.52;7.07;;;22.00;59.50;;;;;;4971041;28;88004;-83
2022/02/09 20:42:57;;;;;;;11.35;6.78;;;22.00;59.30;;;;;;4969478;28;88158;-83
2022/02/09 20:47:57;;;;;;;12.30;6.93;;;22.00;59.40;;;;;;4975768;28;87161;-81
2022/02/09 20:50:23;;;;;;;12.13;7.38;;;22.00;59.00;;;;;;4972916;28;87953;-82
2022/02/09 20:52:49;;;;;;;13.77;6.03;;;22.00;59.40;;;;;;4977125;28;87377;-82
2022/02/09 20:55:14;;;;;;;12.93;6.78;;;22.00;59.20;;;;;;4976110;28;87663;-82
2022/02/09 20:57:40;;;;;;;13.82;6.75;;;22.00;59.00;;;;;;4978327;28;87351;-83
2022/02/09 21:00:16;;;;;;;10.85;6.70;;;22.00;59.30;;;;;;4974026;28;88915;-82
2022/02/09 21:05:37;;;;;;;10.38;6.85;;;22.00;59.20;;;;;;4971112;28;87523;-83
2022/02/09 21:11:06;;;;;;;10.85;6.75;;;22.00;59.30;;;;;;4971304;28;86949;-83
2022/02/09 21:16:21;;;;;;;13.98;6.68;;;22.00;58.90;;;;;;4969778;28;87323;-83
2022/02/09 21:54:08;;;;;;;13.27;6.68;;;22.00;59.00;;;;;;4971889;28;88527;-83
2022/02/09 21:56:57;;;;;;;11.00;5.95;;;22.00;59.20;;;;;;4969303;28;89483;-84
2022/02/09 21:59:54;;;;;;;10.63;5.80;;;22.00;59.70;;;;;;4971305;28;88520;-83
2022/02/09 22:16:42;;;;;;;11.85;6.20;;;21.80;59.20;;;;;;4970016;28;87083;-83
2022/02/09 22:31:58;;;;;;;11.40;6.03;;;21.80;59.00;;;;;;4971569;28;90017;-83
2022/02/09 22:48:01;;;;;;;11.07;6.15;;;21.70;58.70;;;;;;4972406;28;88951;-83
2022/02/09 22:50:45;;;;;;;10.13;5.65;;;21.80;58.70;;;;;;4970268;28;89654;-83
2022/02/09 22:55:55;;;;;;;10.45;5.40;;;21.70;58.50;;;;;;4971602;28;87341;-84
2022/02/09 22:58:21;;;;;;;8.65;5.97;;;21.70;58.40;;;;;;4970053;28;87984;-83
2022/02/09 23:01:13;;;;;;;7.63;5.18;;;21.70;58.40;;;;;;4969468;28;89512;-83
2022/02/09 23:17:02;;;;;;;8.57;5.32;;;21.60;58.10;;;;;;4972687;28;87318;-83
2022/02/09 23:25:30;;;;;;;9.10;5.72;;;21.60;58.20;;;;;;4972482;28;88061;-83
